Time;durP1;ratioP1;P1;durP2;ratioP2;P2;SDS_P1;SDS_P2;PMS_P1;PMS_P2;Temp;Humidity;BMP_temperature;BMP_pressure;BME280_temperature;BME280_humidity;BME280_pressure;Samples;Min_cycle;Max_cycle;Signal;HPM_P1;HPM_P2
2021/09/22 00:00:51;;;;;;;10.88;7.88;;;409.60;1740.80;;;;;;5097581;28;20056;-62
2021/09/22 00:03:17;;;;;;;9.55;7.80;;;409.60;1740.80;;;;;;5097447;28;20149;-62
2021/09/22 00:05:42;;;;;;;13.70;7.75;;;409.60;1715.20;;;;;;5097446;28;20027;-63
2021/09/22 00:08:08;;;;;;;13.50;8.18;;;409.70;1740.80;;;;;;5097136;28;20031;-62
2021/09/22 00:10:34;;;;;;;9.77;7.72;;;409.70;1740.80;;;;;;5096972;28;20473;-63
2021/09/22 00:13:00;;;;;;;8.93;7.10;;;409.60;1740.80;;;;;;5097208;28;20024;-62
2021/09/22 00:15:26;;;;;;;12.65;8.32;;;409.60;1740.80;;;;;;5097239;28;20024;-62
2021/09/22 00:17:52;;;;;;;12.98;7.55;;;409.60;1740.80;;;;;;5097402;28;20020;-62
2021/09/22 00:20:24;;;;;;;9.88;7.82;;;409.60;1740.80;;;;;;5097259;28;20477;-62
2021/09/22 00:22:51;;;;;;;12.05;8.13;;;409.60;1740.80;;;;;;5096951;28;20440;-62
2021/09/22 00:25:17;;;;;;;10.20;7.75;;;409.60;1740.80;;;;;;5096872;28;20048;-62
2021/09/22 00:27:43;;;;;;;9.63;7.05;;;409.60;1740.80;;;;;;5097052;28;20027;-62
2021/09/22 00:30:12;;;;;;;12.02;7.32;;;409.60;1740.80;;;;;;5097131;28;20470;-62
2021/09/22 00:32:39;;;;;;;10.68;7.88;;;384.90;1689.60;;;;;;5096818;28;20489;-62
2021/09/22 00:35:07;;;;;;;11.13;7.95;;;384.90;1715.20;;;;;;5097191;28;20027;-62
2021/09/22 00:37:33;;;;;;;11.82;7.75;;;384.90;1689.60;;;;;;5096224;28;20024;-62
2021/09/22 00:39:59;;;;;;;10.43;8.15;;;384.90;1689.60;;;;;;5096767;28;20343;-62
2021/09/22 00:42:24;;;;;;;10.35;7.90;;;384.90;1715.20;;;;;;5096559;28;20043;-62
2021/09/22 00:44:57;;;;;;;11.77;7.60;;;384.90;1715.20;;;;;;5096558;28;20016;-62
2021/09/22 00:47:25;;;;;;;11.75;7.22;;;384.90;1715.20;;;;;;5096302;28;20020;-62
2021/09/22 00:49:51;;;;;;;9.88;7.60;;;384.90;1715.20;;;;;;5096561;28;20469;-62
2021/09/22 00:52:18;;;;;;;9.57;7.78;;;384.90;1740.80;;;;;;5096384;28;20031;-63
2021/09/22 00:54:43;;;;;;;10.55;7.18;;;384.80;1740.80;;;;;;5096385;28;20026;-63
2021/09/22 00:57:14;;;;;;;8.15;7.10;;;384.90;1740.80;;;;;;5096284;28;20099;-62
2021/09/22 00:59:40;;;;;;;11.10;8.30;;;384.80;1740.80;;;;;;5096259;28;20024;-62
2021/09/22 01:02:06;;;;;;;11.10;8.05;;;384.80;1740.80;;;;;;5094544;28;20157;-62
2021/09/22 01:04:33;;;;;;;11.90;7.50;;;384.80;1740.80;;;;;;5096324;28;20081;-63
2021/09/22 01:06:59;;;;;;;10.15;7.35;;;384.80;1740.80;;;;;;5096066;28;20078;-63
2021/09/22 01:09:26;;;;;;;11.07;7.20;;;384.80;1740.80;;;;;;5095377;28;20024;-62
2021/09/22 01:11:52;;;;;;;8.25;6.80;;;384.80;1740.80;;;;;;5096041;28;20051;-63
2021/09/22 01:14:25;;;;;;;9.50;7.15;;;384.80;1740.80;;;;;;5094755;28;20417;-63
2021/09/22 01:16:52;;;;;;;7.80;6.73;;;384.80;1740.80;;;;;;5096349;28;20028;-62
2021/09/22 01:19:19;;;;;;;11.85;7.43;;;384.70;1740.80;;;;;;5094683;28;20282;-63
2021/09/22 01:21:47;;;;;;;9.05;6.90;;;384.70;1715.20;;;;;;5095652;28;20046;-62
2021/09/22 01:24:13;;;;;;;11.23;7.05;;;384.70;1715.20;;;;;;5095558;28;20016;-62
2021/09/22 01:26:39;;;;;;;8.93;7.07;;;384.70;1715.20;;;;;;5095466;28;20402;-63
2021/09/22 01:29:06;;;;;;;10.38;6.97;;;384.70;1715.20;;;;;;5096014;28;20047;-63
2021/09/22 01:31:36;;;;;;;7.78;6.65;;;384.60;1715.20;;;;;;5095468;28;20073;-62
2021/09/22 01:34:03;;;;;;;10.15;7.50;;;384.60;1740.80;;;;;;5095693;28;20057;-62
2021/09/22 01:36:29;;;;;;;11.07;7.10;;;384.60;1740.80;;;;;;5095344;28;20028;-63
2021/09/22 01:38:55;;;;;;;9.60;6.93;;;384.60;1740.80;;;;;;5095375;28;20020;-62
2021/09/22 01:41:20;;;;;;;7.68;6.80;;;384.50;1740.80;;;;;;5095647;28;20039;-63
2021/09/22 01:43:46;;;;;;;8.55;7.03;;;384.60;1740.80;;;;;;5095466;28;20023;-62
2021/09/22 01:46:12;;;;;;;8.07;6.75;;;384.50;1740.80;;;;;;5095334;28;20525;-63
2021/09/22 01:48:39;;;;;;;9.32;7.25;;;384.60;1740.80;;;;;;5095386;28;20104;-62
2021/09/22 01:51:06;;;;;;;8.75;6.90;;;384.50;1740.80;;;;;;5095202;28;20024;-62
2021/09/22 01:53:32;;;;;;;8.07;7.03;;;384.50;1766.40;;;;;;5095394;28;20028;-62
2021/09/22 01:56:00;;;;;;;11.20;8.20;;;384.50;1740.80;;;;;;5094804;28;20020;-62
2021/09/22 01:58:28;;;;;;;7.82;7.00;;;384.50;1766.40;;;;;;5095097;28;20032;-62
2021/09/22 02:00:59;;;;;;;10.73;7.22;;;384.50;1740.80;;;;;;5095312;28;20024;-62
2021/09/22 02:03:25;;;;;;;11.00;7.28;;;384.40;1766.40;;;;;;5095190;28;20066;-62
2021/09/22 02:05:50;;;;;;;8.00;6.90;;;384.40;1740.80;;;;;;5094396;28;20063;-62
2021/09/22 02:08:16;;;;;;;8.93;7.43;;;384.40;1740.80;;;;;;5095181;28;20020;-62
2021/09/22 02:10:42;;;;;;;8.82;7.15;;;384.40;1766.40;;;;;;5094594;28;20043;-62
2021/09/22 02:13:08;;;;;;;9.10;7.18;;;384.40;1740.80;;;;;;5094715;28;20477;-62
2021/09/22 02:15:35;;;;;;;10.07;7.03;;;384.30;1740.80;;;;;;5093749;28;20032;-62
2021/09/22 02:18:01;;;;;;;7.93;6.80;;;384.30;1766.40;;;;;;5094842;28;20024;-63
2021/09/22 02:20:27;;;;;;;8.20;7.18;;;384.30;1740.80;;;;;;5093556;28;20059;-62
2021/09/22 02:22:52;;;;;;;8.63;6.72;;;384.30;1740.80;;;;;;5094521;28;20094;-62
2021/09/22 02:25:19;;;;;;;11.65;7.07;;;384.30;1740.80;;;;;;5094840;28;20032;-62
2021/09/22 02:27:46;;;;;;;10.27;7.15;;;384.20;1740.80;;;;;;5094552;28;20020;-62
2021/09/22 02:30:19;;;;;;;8.13;6.68;;;384.30;1740.80;;;;;;5094540;28;20020;-62
2021/09/22 02:32:45;;;;;;;12.02;7.53;;;384.20;1715.20;;;;;;5094876;28;20059;-63
2021/09/22 02:35:12;;;;;;;9.30;7.35;;;384.20;1740.80;;;;;;5094751;28;20107;-62
2021/09/22 02:37:38;;;;;;;9.52;7.22;;;384.20;1715.20;;;;;;5094251;28;20550;-62
2021/09/22 02:40:08;;;;;;;9.13;7.72;;;384.20;1740.80;;;;;;5094561;28;20138;-62
2021/09/22 02:42:35;;;;;;;9.00;7.13;;;384.30;1715.20;;;;;;5094298;28;20085;-62
2021/09/22 02:45:01;;;;;;;11.82;7.97;;;384.20;1715.20;;;;;;5094311;28;20158;-62
2021/09/22 02:47:27;;;;;;;9.30;7.35;;;384.20;1715.20;;;;;;5094449;28;20078;-62
2021/09/22 02:49:52;;;;;;;9.35;7.68;;;384.20;1715.20;;;;;;5094025;28;20020;-62
2021/09/22 02:52:18;;;;;;;8.68;7.57;;;384.20;1715.20;;;;;;5093568;28;20373;-63
2021/09/22 02:54:44;;;;;;;9.27;7.55;;;384.20;1715.20;;;;;;5094287;28;20478;-63
2021/09/22 02:57:10;;;;;;;8.68;7.25;;;384.20;1740.80;;;;;;5094042;28;20047;-62
2021/09/22 02:59:35;;;;;;;10.80;8.05;;;384.20;1715.20;;;;;;5094150;28;20031;-63
2021/09/22 03:02:01;;;;;;;10.68;8.43;;;384.20;1740.80;;;;;;5093605;28;20036;-63
2021/09/22 03:04:27;;;;;;;10.20;7.13;;;384.20;1715.20;;;;;;5093975;28;20040;-62
2021/09/22 03:06:53;;;;;;;10.07;7.45;;;384.10;1715.20;;;;;;5093824;28;20516;-62
2021/09/22 03:09:18;;;;;;;10.68;8.30;;;384.10;1715.20;;;;;;5092494;28;20024;-63
2021/09/22 03:11:44;;;;;;;8.95;7.63;;;384.10;1715.20;;;;;;5093620;28;20072;-62
2021/09/22 03:14:10;;;;;;;12.25;8.27;;;384.10;1715.20;;;;;;5093969;28;20103;-62
2021/09/22 03:16:36;;;;;;;11.23;8.30;;;384.00;1740.80;;;;;;5094009;28;20025;-62
2021/09/22 03:19:02;;;;;;;13.95;8.48;;;384.10;1740.80;;;;;;5093964;28;20016;-63
2021/09/22 03:21:28;;;;;;;9.65;8.07;;;384.10;1740.80;;;;;;5093639;28;20028;-62
2021/09/22 03:23:55;;;;;;;11.98;8.30;;;384.00;1740.80;;;;;;5093683;28;20129;-63
2021/09/22 03:26:21;;;;;;;9.80;7.82;;;384.00;1740.80;;;;;;5097617;28;20028;-63
2021/09/22 03:28:47;;;;;;;9.93;8.30;;;384.00;1740.80;;;;;;5099147;28;20052;-62
2021/09/22 03:31:13;;;;;;;10.00;7.78;;;384.00;1740.80;;;;;;5100588;28;20093;-62
2021/09/22 03:33:39;;;;;;;10.38;8.13;;;384.00;1740.80;;;;;;5100401;28;20443;-62
2021/09/22 03:36:04;;;;;;;11.30;7.82;;;384.00;1740.80;;;;;;5100459;28;20027;-62
2021/09/22 03:38:31;;;;;;;12.35;8.65;;;384.00;1740.80;;;;;;5101146;28;20070;-63
2021/09/22 03:40:57;;;;;;;12.30;8.82;;;384.00;1740.80;;;;;;5100444;28;20103;-62
2021/09/22 03:43:23;;;;;;;9.27;7.80;;;384.00;1740.80;;;;;;5100417;28;20020;-62
2021/09/22 03:45:49;;;;;;;11.30;8.88;;;384.00;1740.80;;;;;;5100540;28;20438;-63
2021/09/22 03:48:15;;;;;;;11.63;8.10;;;384.00;1740.80;;;;;;5098956;28;20032;-63
2021/09/22 03:50:41;;;;;;;11.75;8.70;;;384.00;1740.80;;;;;;5100223;28;20020;-62
2021/09/22 03:53:07;;;;;;;10.30;7.38;;;384.00;1740.80;;;;;;5100021;28;20476;-62
2021/09/22 03:55:33;;;;;;;10.30;8.73;;;359.30;1715.20;;;;;;5100349;28;20030;-62
2021/09/22 03:57:59;;;;;;;12.48;9.02;;;359.30;1740.80;;;;;;5099698;28;20106;-62
2021/09/22 04:00:25;;;;;;;9.98;8.13;;;359.30;1740.80;;;;;;5100131;28;20530;-62
2021/09/22 04:02:50;;;;;;;10.70;8.57;;;359.30;1715.20;;;;;;5100287;28;20032;-62
2021/09/22 04:05:16;;;;;;;10.15;8.00;;;359.20;1740.80;;;;;;5100500;28;20480;-63
2021/09/22 04:07:43;;;;;;;9.77;8.02;;;359.20;1740.80;;;;;;5099911;28;20028;-62
2021/09/22 04:10:09;;;;;;;13.25;8.80;;;359.20;1740.80;;;;;;5100270;28;20012;-62
2021/09/22 04:12:35;;;;;;;9.13;7.47;;;359.20;1740.80;;;;;;5099880;28;20056;-62
2021/09/22 04:15:01;;;;;;;9.10;7.75;;;359.20;1740.80;;;;;;5100055;28;20055;-63
2021/09/22 04:17:27;;;;;;;12.50;7.63;;;359.20;1740.80;;;;;;5100183;28;20028;-62
2021/09/22 04:19:52;;;;;;;10.20;8.07;;;359.20;1740.80;;;;;;5100139;28;20028;-63
2021/09/22 04:22:18;;;;;;;9.65;8.18;;;359.20;1766.40;;;;;;5099701;28;20036;-63
2021/09/22 04:24:44;;;;;;;13.23;8.57;;;359.20;1740.80;;;;;;5099859;28;20025;-62
2021/09/22 04:27:10;;;;;;;17.75;8.32;;;359.10;1766.40;;;;;;5100193;28;20385;-62
2021/09/22 04:29:35;;;;;;;16.10;9.45;;;359.10;1766.40;;;;;;5100276;28;20028;-62
2021/09/22 04:32:02;;;;;;;11.25;8.88;;;359.10;1766.40;;;;;;5100211;28;20078;-62
2021/09/22 04:34:27;;;;;;;14.30;9.68;;;359.10;1766.40;;;;;;5099918;28;20016;-62
2021/09/22 04:36:53;;;;;;;16.17;8.70;;;359.10;1766.40;;;;;;5098082;28;20028;-62
2021/09/22 04:39:19;;;;;;;13.63;9.05;;;359.10;1766.40;;;;;;5095171;28;20084;-63
2021/09/22 04:41:45;;;;;;;12.35;8.68;;;359.10;1766.40;;;;;;5096527;28;20102;-62
2021/09/22 04:44:11;;;;;;;12.55;8.82;;;359.10;1740.80;;;;;;5096641;28;20039;-62
2021/09/22 04:46:36;;;;;;;10.73;7.95;;;359.10;1766.40;;;;;;5095204;28;20093;-62
2021/09/22 04:49:04;;;;;;;10.68;8.18;;;359.00;1766.40;;;;;;5096709;28;20024;-62
2021/09/22 04:51:29;;;;;;;15.43;9.63;;;359.10;1740.80;;;;;;5096711;28;20394;-63
2021/09/22 04:53:55;;;;;;;12.90;8.50;;;359.00;1740.80;;;;;;5096507;28;20016;-63
2021/09/22 04:56:21;;;;;;;17.67;10.65;;;359.00;1766.40;;;;;;5096521;28;20028;-62
2021/09/22 04:58:46;;;;;;;12.73;8.27;;;359.00;1792.00;;;;;;5096389;28;20048;-62
2021/09/22 05:01:12;;;;;;;12.80;9.45;;;359.00;1792.00;;;;;;5096237;28;20028;-62
2021/09/22 05:03:38;;;;;;;10.77;8.20;;;359.00;1766.40;;;;;;5094925;28;20028;-62
2021/09/22 05:06:04;;;;;;;13.30;8.98;;;359.00;1766.40;;;;;;5096314;28;20074;-63
2021/09/22 05:08:29;;;;;;;11.00;8.57;;;359.00;1766.40;;;;;;5094754;28;20425;-63
2021/09/22 05:10:55;;;;;;;13.48;8.30;;;359.00;1766.40;;;;;;5095754;28;20486;-62
2021/09/22 05:13:21;;;;;;;10.82;7.93;;;359.00;1766.40;;;;;;5096119;28;20056;-62
2021/09/22 05:15:48;;;;;;;10.23;7.60;;;359.00;1766.40;;;;;;5095609;28;20044;-62
2021/09/22 05:18:13;;;;;;;11.05;8.10;;;359.00;1766.40;;;;;;5095944;28;20088;-62
2021/09/22 05:20:39;;;;;;;9.95;7.68;;;359.00;1766.40;;;;;;5095955;28;20095;-62
2021/09/22 05:23:05;;;;;;;10.18;6.95;;;359.00;1766.40;;;;;;5094995;28;20093;-63
2021/09/22 05:25:31;;;;;;;10.52;7.82;;;359.00;1766.40;;;;;;5094215;28;20131;-62
2021/09/22 05:27:57;;;;;;;13.18;7.13;;;359.10;1766.40;;;;;;5095980;28;20020;-63
2021/09/22 05:30:23;;;;;;;10.43;6.50;;;359.00;1766.40;;;;;;5095774;28;20146;-62
2021/09/22 05:32:49;;;;;;;8.85;6.90;;;359.00;1766.40;;;;;;5094375;28;20081;-62
2021/09/22 05:35:14;;;;;;;8.23;6.78;;;359.00;1740.80;;;;;;5096014;28;20028;-63
2021/09/22 05:37:40;;;;;;;9.30;6.25;;;359.00;1740.80;;;;;;5095392;28;20477;-62
2021/09/22 05:40:07;;;;;;;8.35;6.45;;;359.00;1766.40;;;;;;5095532;28;20020;-62
2021/09/22 05:42:33;;;;;;;12.75;6.07;;;359.00;1740.80;;;;;;5095687;28;20202;-62
2021/09/22 05:44:58;;;;;;;9.90;6.70;;;359.00;1740.80;;;;;;5095407;28;20051;-63
2021/09/22 05:47:24;;;;;;;7.40;6.03;;;359.00;1740.80;;;;;;5095899;28;20036;-63
2021/09/22 05:49:50;;;;;;;7.03;6.32;;;359.10;1740.80;;;;;;5095431;28;20098;-62
2021/09/22 05:52:16;;;;;;;11.02;5.70;;;359.10;1740.80;;;;;;5095205;28;20103;-63
2021/09/22 05:54:41;;;;;;;13.13;6.85;;;359.10;1740.80;;;;;;5093987;28;20020;-63
2021/09/22 05:57:07;;;;;;;7.97;6.10;;;359.10;1740.80;;;;;;5094971;28;20081;-63
2021/09/22 05:59:33;;;;;;;9.25;6.50;;;359.20;1740.80;;;;;;5094927;28;20024;-63
2021/09/22 06:01:59;;;;;;;12.80;6.43;;;359.20;1715.20;;;;;;5095565;28;20035;-63
2021/09/22 06:04:24;;;;;;;10.15;5.72;;;359.20;1715.20;;;;;;5095009;28;20032;-64
2021/09/22 06:06:50;;;;;;;6.82;5.43;;;359.30;1715.20;;;;;;5095135;28;20031;-64
2021/09/22 06:09:16;;;;;;;10.07;6.68;;;359.30;1715.20;;;;;;5094876;28;20421;-64
2021/09/22 06:11:42;;;;;;;10.02;6.65;;;359.30;1715.20;;;;;;5093567;28;20040;-64
2021/09/22 06:14:07;;;;;;;9.18;6.25;;;359.30;1715.20;;;;;;5095009;28;20470;-64
2021/09/22 06:16:33;;;;;;;8.60;5.97;;;359.30;1689.60;;;;;;5094775;28;20024;-65
2021/09/22 06:19:01;;;;;;;8.45;6.28;;;384.00;1715.20;;;;;;5094784;28;20024;-62
2021/09/22 06:21:27;;;;;;;14.45;6.22;;;384.00;1715.20;;;;;;5094762;28;20111;-63
2021/09/22 06:23:53;;;;;;;6.70;5.40;;;384.10;1689.60;;;;;;5094808;28;20035;-63
2021/09/22 06:26:24;;;;;;;8.48;6.07;;;384.10;1689.60;;;;;;5094651;28;20020;-63
2021/09/22 06:28:50;;;;;;;10.98;6.80;;;384.00;1689.60;;;;;;5094525;28;20111;-63
2021/09/22 06:31:16;;;;;;;9.75;6.13;;;384.00;1689.60;;;;;;5094743;28;20024;-64
2021/09/22 06:33:43;;;;;;;9.50;5.85;;;384.00;1664.00;;;;;;5094508;28;20020;-63
2021/09/22 06:36:09;;;;;;;9.50;5.75;;;384.10;1689.60;;;;;;5094514;28;20097;-63
2021/09/22 06:38:36;;;;;;;8.90;5.97;;;384.10;1689.60;;;;;;5094458;28;20032;-63
2021/09/22 06:41:02;;;;;;;9.43;6.40;;;384.10;1689.60;;;;;;5094380;28;20059;-62
2021/09/22 06:43:28;;;;;;;21.75;7.22;;;384.10;1689.60;;;;;;5093119;28;20085;-62
2021/09/22 06:45:54;;;;;;;14.80;6.65;;;384.10;1689.60;;;;;;5094618;28;20495;-63
2021/09/22 06:48:19;;;;;;;8.02;5.88;;;384.20;1689.60;;;;;;5094155;28;20366;-62
2021/09/22 06:50:46;;;;;;;6.43;5.68;;;384.20;1689.60;;;;;;5094046;28;20028;-64
2021/09/22 06:53:11;;;;;;;12.38;6.90;;;384.20;1664.00;;;;;;5094152;28;20055;-62
2021/09/22 06:55:38;;;;;;;8.15;5.85;;;384.20;1664.00;;;;;;5094320;28;20052;-62
2021/09/22 06:58:05;;;;;;;8.88;5.93;;;384.30;1664.00;;;;;;5094005;28;20113;-62
2021/09/22 07:00:31;;;;;;;7.38;5.43;;;384.30;1664.00;;;;;;5093718;28;20024;-62
2021/09/22 07:02:57;;;;;;;8.70;5.88;;;384.40;1664.00;;;;;;5093986;28;20116;-62
2021/09/22 07:05:23;;;;;;;8.00;6.40;;;384.40;1664.00;;;;;;5094160;28;20056;-62
2021/09/22 07:07:48;;;;;;;10.35;6.43;;;384.40;1664.00;;;;;;5093967;28;20051;-63
2021/09/22 07:10:15;;;;;;;9.38;5.78;;;384.40;1664.00;;;;;;5094138;28;20031;-62
2021/09/22 07:12:41;;;;;;;9.07;6.15;;;384.40;1664.00;;;;;;5093728;28;20058;-62
2021/09/22 07:15:07;;;;;;;12.65;5.63;;;384.40;1638.40;;;;;;5094167;28;20024;-63
2021/09/22 07:17:33;;;;;;;7.30;5.95;;;384.40;1638.40;;;;;;5094095;28;20094;-62
2021/09/22 07:19:59;;;;;;;8.73;6.10;;;384.40;1664.00;;;;;;5092469;28;20493;-62
2021/09/22 07:22:24;;;;;;;11.20;5.78;;;384.40;1664.00;;;;;;5093750;28;20044;-62
2021/09/22 07:24:50;;;;;;;9.23;5.43;;;384.40;1664.00;;;;;;5093902;28;20459;-63
2021/09/22 07:27:16;;;;;;;7.10;6.35;;;384.50;1638.40;;;;;;5093894;28;20024;-62
2021/09/22 07:29:42;;;;;;;10.73;6.05;;;384.50;1638.40;;;;;;5093559;28;20477;-62
2021/09/22 07:32:09;;;;;;;7.80;6.38;;;384.50;1638.40;;;;;;5093722;28;20054;-62
2021/09/22 07:34:35;;;;;;;21.92;7.07;;;384.50;1638.40;;;;;;5093740;28;20078;-64
2021/09/22 07:37:06;;;;;;;15.70;5.70;;;384.60;1612.80;;;;;;5093745;28;20090;-63
2021/09/22 07:39:33;;;;;;;13.07;6.10;;;384.60;1612.80;;;;;;5093817;28;20032;-63
2021/09/22 07:41:59;;;;;;;12.45;6.30;;;384.70;1612.80;;;;;;5093268;28;20035;-63
2021/09/22 07:44:24;;;;;;;13.10;6.05;;;384.70;1612.80;;;;;;5093663;28;20432;-63
2021/09/22 07:46:50;;;;;;;11.50;6.30;;;384.70;1612.80;;;;;;5093769;28;20047;-63
2021/09/22 07:49:16;;;;;;;12.48;6.55;;;384.80;1612.80;;;;;;5093904;28;20373;-63
2021/09/22 07:51:42;;;;;;;9.63;6.20;;;384.80;1612.80;;;;;;5093696;28;20032;-63
2021/09/22 07:54:08;;;;;;;9.93;6.28;;;384.80;1612.80;;;;;;5093679;28;20041;-63
2021/09/22 07:56:52;;;;;;;9.23;6.25;;;384.90;1612.80;;;;;;5093104;28;20016;-63
2021/09/22 07:59:17;;;;;;;7.88;5.97;;;384.90;1587.20;;;;;;5093684;28;20104;-63
2021/09/22 08:01:43;;;;;;;11.88;6.35;;;384.90;1587.20;;;;;;5092892;28;20455;-63
2021/09/22 08:04:09;;;;;;;15.52;7.13;;;384.90;1587.20;;;;;;5093398;28;20078;-63
2021/09/22 08:06:35;;;;;;;8.10;6.60;;;384.90;1587.20;;;;;;5093581;28;20028;-63
2021/09/22 08:09:01;;;;;;;10.60;6.68;;;384.90;1587.20;;;;;;5092867;28;20077;-63
2021/09/22 08:11:27;;;;;;;8.73;6.05;;;384.90;1587.20;;;;;;5093174;28;20489;-63
2021/09/22 08:13:52;;;;;;;7.93;6.45;;;384.90;1587.20;;;;;;5096449;28;20099;-63
2021/09/22 08:16:18;;;;;;;10.45;6.70;;;409.60;1612.80;;;;;;5097144;28;20369;-63
2021/09/22 08:18:46;;;;;;;10.88;6.85;;;409.60;1612.80;;;;;;5095883;28;20068;-63
2021/09/22 08:21:13;;;;;;;12.98;7.50;;;409.60;1612.80;;;;;;5097107;28;20535;-63
2021/09/22 08:23:40;;;;;;;11.52;8.07;;;409.60;1612.80;;;;;;5096878;28;20389;-63
2021/09/22 08:26:05;;;;;;;9.35;6.88;;;409.70;1612.80;;;;;;5096873;28;20030;-63
2021/09/22 08:28:31;;;;;;;12.63;7.55;;;409.70;1612.80;;;;;;5096880;28;20024;-63
2021/09/22 08:30:57;;;;;;;13.68;7.45;;;409.70;1612.80;;;;;;5096802;28;20031;-63
2021/09/22 08:33:22;;;;;;;12.23;6.80;;;409.70;1612.80;;;;;;5096322;28;20089;-63
2021/09/22 08:35:48;;;;;;;8.77;6.32;;;409.70;1612.80;;;;;;5096857;28;20035;-63
2021/09/22 08:38:14;;;;;;;10.20;6.38;;;409.80;1612.80;;;;;;5096682;28;20031;-63
2021/09/22 08:40:40;;;;;;;10.10;7.05;;;409.80;1612.80;;;;;;5096717;28;20024;-63
2021/09/22 08:43:06;;;;;;;16.48;7.43;;;409.80;1638.40;;;;;;5095247;28;20056;-63
2021/09/22 08:45:35;;;;;;;10.05;6.60;;;409.80;1638.40;;;;;;5097118;28;20048;-63
2021/09/22 08:48:00;;;;;;;9.65;7.60;;;409.80;1638.40;;;;;;5095304;28;20093;-63
2021/09/22 08:50:27;;;;;;;10.30;7.85;;;409.80;1638.40;;;;;;5095477;28;20020;-63
2021/09/22 08:52:52;;;;;;;15.40;8.27;;;409.80;1638.40;;;;;;5096261;28;20020;-63
2021/09/22 08:55:18;;;;;;;12.20;8.30;;;409.80;1664.00;;;;;;5096171;28;20031;-63
2021/09/22 08:57:44;;;;;;;9.60;7.45;;;409.80;1664.00;;;;;;5095812;28;20068;-63
2021/09/22 09:00:12;;;;;;;18.33;8.80;;;409.80;1664.00;;;;;;5096329;28;20020;-63
2021/09/22 09:02:40;;;;;;;10.57;7.90;;;409.80;1664.00;;;;;;5094752;28;20040;-63
2021/09/22 09:05:08;;;;;;;10.30;8.52;;;409.80;1664.00;;;;;;5096288;28;20035;-63
2021/09/22 09:07:44;;;;;;;11.90;9.20;;;409.80;1689.60;;;;;;5096117;28;20016;-63
2021/09/22 09:10:10;;;;;;;10.90;8.43;;;409.90;1689.60;;;;;;5096258;28;20020;-63
2021/09/22 09:12:36;;;;;;;13.65;8.07;;;409.90;1689.60;;;;;;5094490;28;20042;-63
2021/09/22 09:15:10;;;;;;;10.43;8.27;;;409.90;1715.20;;;;;;5095985;28;20398;-63
2021/09/22 09:17:49;;;;;;;18.50;8.73;;;410.00;1689.60;;;;;;5096150;28;20030;-63
2021/09/22 09:20:24;;;;;;;13.05;10.93;;;410.00;1689.60;;;;;;5096115;28;20377;-63
2021/09/22 09:22:58;;;;;;;13.55;9.90;;;410.00;1715.20;;;;;;5095325;28;20565;-64
2021/09/22 09:25:27;;;;;;;13.18;9.35;;;410.00;1715.20;;;;;;5093540;28;20028;-63
2021/09/22 09:27:53;;;;;;;12.57;9.25;;;410.00;1715.20;;;;;;5094936;28;20048;-63
2021/09/22 09:30:22;;;;;;;17.08;10.68;;;410.00;1715.20;;;;;;5093533;28;20048;-62
2021/09/22 09:32:48;;;;;;;17.80;15.15;;;410.00;1715.20;;;;;;5092576;28;20024;-62
2021/09/22 09:35:15;;;;;;;18.23;14.32;;;410.00;1740.80;;;;;;5094243;28;20024;-63
2021/09/22 09:37:41;;;;;;;22.45;14.23;;;410.00;1715.20;;;;;;5095377;28;20073;-62
2021/09/22 09:40:35;;;;;;;30.05;17.00;;;410.00;1715.20;;;;;;5094038;28;20036;-63
2021/09/22 09:43:09;;;;;;;22.45;12.45;;;410.00;1715.20;;;;;;5095560;28;20093;-61
2021/09/22 09:45:45;;;;;;;17.55;11.45;;;410.00;1715.20;;;;;;5095113;28;20089;-64
2021/09/22 09:48:20;;;;;;;18.45;13.07;;;409.90;1689.60;;;;;;5095433;28;20424;-63
2021/09/22 09:50:47;;;;;;;17.52;12.73;;;409.90;1689.60;;;;;;5095126;28;20028;-63
2021/09/22 09:53:29;;;;;;;22.88;14.25;;;409.80;1715.20;;;;;;5093174;28;20461;-62
2021/09/22 09:55:59;;;;;;;14.25;11.57;;;409.80;1715.20;;;;;;5094383;28;20016;-63
2021/09/22 09:58:39;;;;;;;18.15;11.85;;;409.80;1715.20;;;;;;5091674;28;20050;-63
2021/09/22 10:01:05;;;;;;;20.92;13.02;;;409.70;1715.20;;;;;;5093514;28;20097;-64
2021/09/22 10:03:31;;;;;;;17.50;11.57;;;409.70;1740.80;;;;;;5091886;28;20117;-63
2021/09/22 10:05:58;;;;;;;19.13;12.50;;;409.70;1740.80;;;;;;5093108;28;20016;-63
2021/09/22 10:08:26;;;;;;;15.63;10.30;;;409.70;1740.80;;;;;;5091839;28;20032;-63
2021/09/22 10:10:55;;;;;;;15.77;11.40;;;409.70;1740.80;;;;;;5093455;28;20123;-64
2021/09/22 10:13:22;;;;;;;15.13;11.23;;;409.70;1766.40;;;;;;5090438;28;20074;-63
2021/09/22 10:15:50;;;;;;;18.40;13.30;;;409.70;1766.40;;;;;;5092791;28;20099;-63
2021/09/22 10:18:19;;;;;;;16.27;12.18;;;409.70;1740.80;;;;;;5092456;28;20030;-63
2021/09/22 10:20:47;;;;;;;14.50;10.50;;;409.70;1740.80;;;;;;5092398;28;20024;-63
2021/09/22 10:23:14;;;;;;;18.90;10.38;;;409.70;1740.80;;;;;;5093093;28;20056;-63
2021/09/22 10:25:41;;;;;;;15.02;12.65;;;409.70;1740.80;;;;;;5093239;28;20095;-63
2021/09/22 10:28:08;;;;;;;17.15;12.98;;;409.70;1740.80;;;;;;5092529;28;20489;-63
2021/09/22 10:30:45;;;;;;;16.35;13.00;;;409.80;1766.40;;;;;;5092728;28;20026;-63
2021/09/22 10:33:29;;;;;;;13.77;12.32;;;409.80;1740.80;;;;;;5093770;28;20095;-63
2021/09/22 10:35:56;;;;;;;14.18;10.68;;;409.80;1740.80;;;;;;5090904;28;20035;-63
2021/09/22 10:38:28;;;;;;;12.77;10.20;;;409.80;1715.20;;;;;;5092397;28;20020;-63
2021/09/22 10:41:01;;;;;;;13.15;10.35;;;409.80;1689.60;;;;;;5091515;28;20490;-65
2021/09/22 10:43:28;;;;;;;14.60;10.83;;;409.80;1715.20;;;;;;5090077;28;20088;-64
2021/09/22 10:46:00;;;;;;;13.45;10.70;;;409.80;1715.20;;;;;;5089919;28;20264;-64
2021/09/22 10:48:26;;;;;;;15.30;10.82;;;409.70;1715.20;;;;;;5090093;28;20552;-64
2021/09/22 10:50:58;;;;;;;12.30;10.13;;;409.70;1766.40;;;;;;5090551;28;20016;-64
2021/09/22 10:53:32;;;;;;;12.45;10.68;;;409.70;1766.40;;;;;;5091001;28;20474;-63
2021/09/22 10:56:13;;;;;;;13.93;10.93;;;409.70;1766.40;;;;;;5090958;28;20198;-64
2021/09/22 10:58:51;;;;;;;14.48;10.52;;;409.70;1792.00;;;;;;5090204;28;20486;-63
2021/09/22 11:01:32;;;;;;;15.27;10.68;;;409.70;1792.00;;;;;;5090224;28;20070;-65
2021/09/22 11:04:12;;;;;;;13.40;10.95;;;409.70;1817.60;;;;;;5089029;28;20055;-64
2021/09/22 11:06:44;;;;;;;11.88;10.30;;;409.60;1817.60;;;;;;5090503;28;20028;-64
2021/09/22 11:09:10;;;;;;;15.43;10.98;;;409.60;1817.60;;;;;;5089303;28;20043;-64
2021/09/22 11:11:55;;;;;;;13.77;11.18;;;409.60;1817.60;;;;;;5090446;28;20503;-64
2021/09/22 11:14:30;;;;;;;14.13;10.70;;;409.60;1817.60;;;;;;5090566;28;20020;-63
2021/09/22 11:17:00;;;;;;;13.00;11.07;;;409.60;1817.60;;;;;;5091174;28;20036;-63
2021/09/22 11:19:27;;;;;;;15.82;11.07;;;409.60;1843.20;;;;;;5088210;28;20039;-63
2021/09/22 11:21:53;;;;;;;14.80;11.05;;;409.60;1843.20;;;;;;5090521;28;20051;-63
2021/09/22 11:24:22;;;;;;;12.65;10.45;;;409.60;1843.20;;;;;;5091061;28;20062;-63
2021/09/22 11:26:53;;;;;;;12.77;11.10;;;409.60;1817.60;;;;;;5089100;28;20059;-63
2021/09/22 11:29:35;;;;;;;18.40;11.35;;;409.60;1817.60;;;;;;5089848;28;20108;-63
2021/09/22 11:32:03;;;;;;;13.40;11.18;;;384.90;1817.60;;;;;;5090890;28;20384;-63
2021/09/22 11:34:31;;;;;;;13.45;10.60;;;384.90;1817.60;;;;;;5089516;28;20021;-63
2021/09/22 11:37:12;;;;;;;18.98;12.15;;;384.90;1817.60;;;;;;5091470;28;20024;-63
2021/09/22 11:39:41;;;;;;;16.13;11.27;;;384.90;1843.20;;;;;;5087750;28;20027;-63
2021/09/22 11:42:08;;;;;;;11.77;10.13;;;384.90;1843.20;;;;;;5088046;28;20492;-64
2021/09/22 11:44:35;;;;;;;16.13;11.07;;;384.90;1817.60;;;;;;5090879;28;20027;-63
2021/09/22 11:47:03;;;;;;;16.63;10.82;;;384.80;1817.60;;;;;;5092909;28;20030;-64
2021/09/22 11:49:39;;;;;;;10.95;9.80;;;384.80;1817.60;;;;;;5092987;28;20416;-64
2021/09/22 11:52:08;;;;;;;15.15;12.30;;;384.80;1817.60;;;;;;5094716;28;20031;-65
2021/09/22 11:54:34;;;;;;;16.80;11.73;;;384.80;1843.20;;;;;;5095204;28;20424;-65
2021/09/22 11:57:06;;;;;;;13.18;10.50;;;384.70;1843.20;;;;;;5094919;28;20024;-65
2021/09/22 11:59:34;;;;;;;26.73;10.48;;;384.70;1843.20;;;;;;5095108;28;20020;-64
2021/09/22 12:02:01;;;;;;;15.57;10.52;;;384.70;1843.20;;;;;;5095548;28;20094;-65
2021/09/22 12:04:37;;;;;;;16.50;12.13;;;384.60;1843.20;;;;;;5095083;28;20020;-64
2021/09/22 12:07:05;;;;;;;13.73;11.07;;;384.60;1868.80;;;;;;5093787;28;20016;-65
2021/09/22 12:09:40;;;;;;;16.20;11.90;;;384.50;1894.40;;;;;;5096411;28;20069;-63